createdAt,value
2023-05-06T00:03:23.165Z,5.00
2023-05-06T00:06:49.923Z,4.37
2023-05-06T00:10:14.943Z,5.05
2023-05-06T00:13:42.065Z,4.70
2023-05-06T00:17:06.988Z,4.55
2023-05-06T00:20:32.757Z,5.18
2023-05-06T00:23:58.826Z,4.85
2023-05-06T00:27:24.548Z,5.10
2023-05-06T00:30:52.028Z,4.40
2023-05-06T00:34:18.874Z,4.62
2023-05-06T00:37:44.386Z,4.60
2023-05-06T00:41:09.620Z,4.70
2023-05-06T00:44:35.276Z,4.70
2023-05-06T00:48:01.723Z,4.70
2023-05-06T00:51:26.205Z,5.15
2023-05-06T00:54:52.243Z,5.43
2023-05-06T00:58:17.738Z,5.10
2023-05-06T01:01:43.246Z,4.72
2023-05-06T01:05:10.952Z,5.10
2023-05-06T01:08:39.282Z,5.35
2023-05-06T01:12:07.513Z,5.53
2023-05-06T01:15:36.462Z,5.40
2023-05-06T01:19:02.042Z,5.18
2023-05-06T01:22:29.149Z,5.03
2023-05-06T01:25:55.888Z,5.10
2023-05-06T01:29:22.673Z,5.97
2023-05-06T01:32:53.336Z,5.50
2023-05-06T01:36:22.615Z,5.35
2023-05-06T01:39:49.911Z,5.60
2023-05-06T01:43:17.597Z,6.00
2023-05-06T01:46:44.129Z,5.40
2023-05-06T01:50:12.118Z,5.40
2023-05-06T01:53:37.848Z,5.47
2023-05-06T01:57:05.023Z,5.53
2023-05-06T02:00:34.125Z,5.45
2023-05-06T02:04:00.417Z,5.37
2023-05-06T02:07:26.203Z,6.22
2023-05-06T02:10:52.546Z,6.35
2023-05-06T02:14:19.710Z,6.07
2023-05-06T02:17:47.973Z,5.78
2023-05-06T02:21:13.743Z,6.03
2023-05-06T02:24:40.172Z,5.82
2023-05-06T02:28:05.841Z,5.70
2023-05-06T02:31:30.742Z,6.13
2023-05-06T02:34:57.042Z,6.18
2023-05-06T02:38:22.670Z,6.47
2023-05-06T02:41:48.120Z,6.40
2023-05-06T02:45:16.100Z,6.62
2023-05-06T02:48:43.484Z,5.67
2023-05-06T02:52:11.573Z,6.25
2023-05-06T02:55:37.052Z,6.32
2023-05-06T02:59:04.367Z,6.70
2023-05-06T03:02:30.046Z,6.68
2023-05-06T03:05:57.047Z,6.43
2023-05-06T03:09:23.629Z,6.55
2023-05-06T03:12:49.953Z,6.47
2023-05-06T03:16:16.057Z,6.03
2023-05-06T03:19:45.392Z,6.50
2023-05-06T03:23:11.287Z,6.37
2023-05-06T03:26:39.446Z,6.90
2023-05-06T03:30:06.164Z,6.60
2023-05-06T03:33:31.474Z,6.80
2023-05-06T03:36:56.639Z,6.95
2023-05-06T03:40:24.234Z,6.33
2023-05-06T03:43:50.704Z,6.50
2023-05-06T03:47:18.666Z,6.75
2023-05-06T03:50:44.672Z,6.93
2023-05-06T03:54:11.756Z,6.78
2023-05-06T03:57:37.546Z,6.83
2023-05-06T04:01:06.302Z,6.60
2023-05-06T04:04:31.691Z,6.70
2023-05-06T04:07:56.972Z,5.80
2023-05-06T04:11:23.606Z,6.60
2023-05-06T04:14:48.616Z,6.50
2023-05-06T04:18:19.768Z,6.50
2023-05-06T04:21:44.955Z,6.82
2023-05-06T04:25:12.831Z,6.22
2023-05-06T04:28:38.505Z,6.35
2023-05-06T04:32:05.503Z,6.03
2023-05-06T04:35:34.666Z,6.45
2023-05-06T04:39:00.665Z,6.45
2023-05-06T04:42:26.712Z,7.03
2023-05-06T04:45:52.337Z,7.18
2023-05-06T04:49:20.979Z,6.80
2023-05-06T04:52:46.809Z,7.12
2023-05-06T04:56:12.682Z,7.12
2023-05-06T04:59:39.344Z,7.03
2023-05-06T05:03:04.680Z,6.60
2023-05-06T05:06:30.659Z,7.03
2023-05-06T05:09:57.943Z,6.75
2023-05-06T05:13:23.501Z,6.32
2023-05-06T05:16:52.701Z,6.97
2023-05-06T05:20:18.186Z,7.07
2023-05-06T05:23:43.297Z,7.40
2023-05-06T05:27:10.044Z,6.65
2023-05-06T05:30:35.549Z,7.05
2023-05-06T05:34:01.686Z,6.62
2023-05-06T05:37:26.906Z,7.28
2023-05-06T05:40:52.732Z,7.20
2023-05-06T05:44:21.209Z,7.20
2023-05-06T05:47:47.968Z,7.35
2023-05-06T05:51:13.996Z,8.65
2023-05-06T05:54:41.356Z,8.57
2023-05-06T05:58:08.851Z,8.40
2023-05-06T06:01:36.894Z,9.13
2023-05-06T06:05:03.444Z,8.98
2023-05-06T06:08:30.271Z,7.87
2023-05-06T06:11:56.632Z,7.40
2023-05-06T06:15:22.483Z,8.00
2023-05-06T06:18:51.108Z,7.65
2023-05-06T06:22:16.268Z,7.65
2023-05-06T06:25:42.082Z,7.22
2023-05-06T06:29:07.360Z,7.25
2023-05-06T06:32:33.549Z,7.80
2023-05-06T06:36:00.819Z,6.80
2023-05-06T06:39:26.779Z,7.15
2023-05-06T06:42:52.382Z,6.70
2023-05-06T06:46:21.682Z,7.62
2023-05-06T06:49:46.034Z,8.07
2023-05-06T06:53:13.416Z,6.95
2023-05-06T06:56:39.432Z,7.03
2023-05-06T07:00:05.767Z,6.50
2023-05-06T07:03:30.969Z,6.80
2023-05-06T07:06:57.318Z,6.97
2023-05-06T07:10:25.373Z,6.05
2023-05-06T07:13:50.513Z,6.40
2023-05-06T07:17:16.502Z,5.72
2023-05-06T07:20:41.976Z,6.00
2023-05-06T07:24:06.859Z,5.70
2023-05-06T07:27:33.905Z,5.93
2023-05-06T07:30:58.699Z,6.35
2023-05-06T07:34:24.096Z,6.00
2023-05-06T07:37:49.649Z,5.72
2023-05-06T07:41:17.123Z,5.67
2023-05-06T07:44:44.371Z,6.53
2023-05-06T07:48:10.568Z,6.12
2023-05-06T07:51:35.972Z,6.35
2023-05-06T07:55:01.734Z,5.85
2023-05-06T07:58:25.593Z,6.33
2023-05-06T08:01:51.550Z,6.30
2023-05-06T08:05:16.149Z,5.93
2023-05-06T08:08:40.025Z,6.20
2023-05-06T08:12:04.999Z,6.00
2023-05-06T08:15:28.872Z,6.37
2023-05-06T08:19:03.685Z,5.30
2023-05-06T08:22:28.029Z,5.12
2023-05-06T08:25:52.343Z,5.03
2023-05-06T08:29:16.669Z,5.07
2023-05-06T08:32:41.339Z,4.90
2023-05-06T08:36:09.302Z,4.50
2023-05-06T08:39:34.839Z,4.50
2023-05-06T08:42:59.821Z,4.65
2023-05-06T08:46:24.235Z,4.00
2023-05-06T08:49:48.715Z,4.53
2023-05-06T08:53:17.431Z,5.10
2023-05-06T08:56:44.561Z,4.90
2023-05-06T09:00:12.189Z,4.93
2023-05-06T09:03:36.453Z,4.97
2023-05-06T09:07:00.782Z,5.40
2023-05-06T09:10:27.958Z,5.20
2023-05-06T09:13:52.464Z,4.97
2023-05-06T09:17:24.510Z,5.03
2023-05-06T09:20:49.891Z,5.03
2023-05-06T09:24:14.441Z,5.00
2023-05-06T09:27:40.039Z,4.85
2023-05-06T09:31:04.274Z,5.03
2023-05-06T09:34:28.795Z,4.07
2023-05-06T09:37:53.647Z,4.00
2023-05-06T09:41:21.116Z,4.67
2023-05-06T09:44:47.138Z,4.22
2023-05-06T09:48:11.358Z,3.85
2023-05-06T09:51:35.612Z,3.58
2023-05-06T09:55:03.630Z,2.87
2023-05-06T09:58:27.642Z,2.80
2023-05-06T10:01:53.195Z,3.47
2023-05-06T10:05:18.341Z,3.60
2023-05-06T10:08:42.805Z,3.40
2023-05-06T10:12:07.453Z,4.00
2023-05-06T10:15:31.655Z,3.07
2023-05-06T10:18:58.422Z,3.90
2023-05-06T10:22:33.226Z,4.00
2023-05-06T10:26:00.121Z,4.53
2023-05-06T10:29:24.394Z,4.45
2023-05-06T10:32:49.118Z,4.30
2023-05-06T10:36:18.805Z,5.53
2023-05-06T10:39:43.726Z,5.47
2023-05-06T10:43:27.183Z,4.65
2023-05-06T10:47:02.297Z,4.40
2023-05-06T10:50:26.321Z,4.00
2023-05-06T10:54:07.194Z,3.90
2023-05-06T10:57:31.358Z,3.87
2023-05-06T11:00:56.523Z,3.62
2023-05-06T11:04:21.267Z,3.30
2023-05-06T11:07:45.762Z,3.43
2023-05-06T11:11:42.602Z,3.17
2023-05-06T11:18:46.164Z,3.30
2023-05-06T11:22:11.379Z,3.70
2023-05-06T11:25:41.715Z,3.15
2023-05-06T11:29:06.357Z,3.03
2023-05-06T11:32:31.009Z,3.30
2023-05-06T11:35:56.928Z,2.80
2023-05-06T11:39:21.334Z,3.00
2023-05-06T11:42:45.695Z,2.95
2023-05-06T11:46:10.064Z,3.28
2023-05-06T11:49:38.120Z,3.40
2023-05-06T11:53:03.987Z,2.70
2023-05-06T11:56:28.415Z,3.03
2023-05-06T11:59:55.669Z,2.83
2023-05-06T12:03:21.080Z,3.28
2023-05-06T12:06:46.265Z,2.97
2023-05-06T12:10:12.595Z,2.90
2023-05-06T12:13:38.234Z,3.00
2023-05-06T12:17:02.312Z,2.95
2023-05-06T12:20:27.626Z,2.90
2023-05-06T12:23:55.405Z,2.70
2023-05-06T12:27:34.787Z,2.70
2023-05-06T12:30:58.725Z,2.67
2023-05-06T12:34:37.652Z,2.87
2023-05-06T12:38:10.208Z,2.55
2023-05-06T12:41:39.059Z,2.83
2023-05-06T12:45:17.046Z,3.62
2023-05-06T12:48:41.858Z,2.90
2023-05-06T12:52:09.733Z,3.00
2023-05-06T12:55:34.235Z,3.20
2023-05-06T12:59:00.291Z,2.80
2023-05-06T13:02:27.088Z,3.55
2023-05-06T13:05:52.262Z,3.63
2023-05-06T13:09:16.915Z,3.28
2023-05-06T13:12:41.618Z,3.97
2023-05-06T13:16:07.141Z,4.28
2023-05-06T13:19:33.465Z,3.30
2023-05-06T13:22:57.852Z,3.63
2023-05-06T13:26:21.514Z,3.35
2023-05-06T13:29:46.304Z,3.37
2023-05-06T13:33:10.362Z,4.45
2023-05-06T13:36:36.473Z,3.47
2023-05-06T13:40:00.938Z,3.20
2023-05-06T13:43:27.048Z,3.45
2023-05-06T13:46:51.740Z,3.12
2023-05-06T13:50:16.925Z,3.50
2023-05-06T13:53:44.772Z,4.20
2023-05-06T13:57:08.820Z,3.90
2023-05-06T14:00:33.222Z,3.92
2023-05-06T14:03:57.681Z,3.97
2023-05-06T14:07:21.750Z,3.90
2023-05-06T14:10:47.916Z,3.62
2023-05-06T14:14:13.353Z,3.87
2023-05-06T14:17:39.281Z,3.87
2023-05-06T14:21:04.236Z,3.80
2023-05-06T14:24:29.792Z,4.05
2023-05-06T14:27:55.933Z,3.75
2023-05-06T14:31:20.805Z,3.43
2023-05-06T14:34:45.666Z,3.30
2023-05-06T14:38:10.561Z,3.37
2023-05-06T14:41:35.650Z,3.65
2023-05-06T14:45:03.651Z,3.95
2023-05-06T14:48:28.488Z,4.20
2023-05-06T14:51:53.529Z,4.12
2023-05-06T14:55:19.270Z,4.95
2023-05-06T14:58:45.005Z,4.15
2023-05-06T15:02:12.171Z,3.70
2023-05-06T15:05:37.878Z,3.87
2023-05-06T15:09:04.996Z,3.95
2023-05-06T15:12:30.858Z,4.47
2023-05-06T15:16:00.572Z,4.68
2023-05-06T15:19:29.003Z,4.40
2023-05-06T15:22:53.525Z,4.77
2023-05-06T15:26:19.894Z,3.83
2023-05-06T15:29:45.826Z,4.20
2023-05-06T15:33:11.041Z,4.47
2023-05-06T15:36:38.820Z,4.10
2023-05-06T15:40:06.233Z,4.00
2023-05-06T15:43:37.600Z,4.22
2023-05-06T15:47:04.368Z,4.20
2023-05-06T15:50:33.953Z,4.20
2023-05-06T15:54:00.508Z,4.55
2023-05-06T15:57:24.404Z,4.07
2023-05-06T16:00:49.516Z,4.32
2023-05-06T16:04:15.450Z,4.30
2023-05-06T16:07:41.140Z,4.30
2023-05-06T16:11:08.474Z,4.18
2023-05-06T16:14:34.066Z,4.10
2023-05-06T16:17:59.763Z,4.35
2023-05-06T16:21:24.060Z,4.35
2023-05-06T16:24:49.429Z,4.90
2023-05-06T16:28:16.326Z,4.37
2023-05-06T16:31:42.108Z,4.33
2023-05-06T16:35:07.770Z,4.25
2023-05-06T16:38:32.580Z,4.40
2023-05-06T16:41:56.764Z,4.40
2023-05-06T16:45:23.418Z,5.53
2023-05-06T16:48:48.026Z,5.47
2023-05-06T16:52:12.877Z,5.93
2023-05-06T16:55:38.478Z,5.45
2023-05-06T16:59:05.281Z,6.10
2023-05-06T17:02:32.402Z,6.05
2023-05-06T17:05:58.447Z,7.10
2023-05-06T17:09:24.664Z,8.48
2023-05-06T17:12:49.036Z,6.30
2023-05-06T17:16:14.875Z,6.40
2023-05-06T17:19:51.523Z,5.62
2023-05-06T17:23:16.580Z,6.07
2023-05-06T17:27:05.297Z,5.20
2023-05-06T17:30:29.352Z,5.25
2023-05-06T17:33:55.187Z,5.50
2023-05-06T17:37:22.111Z,4.82
2023-05-06T17:40:47.096Z,4.73
2023-05-06T17:44:11.582Z,5.22
2023-05-06T17:47:36.658Z,5.75
2023-05-06T17:51:03.994Z,6.15
2023-05-06T17:54:35.326Z,5.62
2023-05-06T17:58:00.444Z,7.13
2023-05-06T18:01:25.380Z,5.68
2023-05-06T18:04:50.786Z,5.72
2023-05-06T18:08:15.400Z,5.97
2023-05-06T18:11:42.396Z,6.32
2023-05-06T18:15:09.076Z,6.23
2023-05-06T18:18:34.613Z,6.35
2023-05-06T18:21:59.193Z,6.53
2023-05-06T18:25:23.691Z,7.18
2023-05-06T18:28:49.510Z,6.72
2023-05-06T18:32:14.397Z,6.73
2023-05-06T18:35:38.817Z,7.50
2023-05-06T18:39:05.224Z,7.70
2023-05-06T18:42:29.639Z,7.72
2023-05-06T18:45:56.240Z,7.55
2023-05-06T18:49:20.583Z,7.40
2023-05-06T18:52:45.386Z,6.80
2023-05-06T18:56:09.972Z,7.03
2023-05-06T18:59:34.667Z,7.75
2023-05-06T19:03:01.311Z,7.47
2023-05-06T19:06:26.775Z,6.70
2023-05-06T19:09:52.660Z,6.90
2023-05-06T19:13:18.404Z,6.53
2023-05-06T19:16:43.239Z,7.37
2023-05-06T19:20:11.610Z,7.05
2023-05-06T19:23:35.994Z,7.23
2023-05-06T19:27:00.760Z,6.15
2023-05-06T19:30:24.979Z,6.57
2023-05-06T19:33:49.955Z,6.90
2023-05-06T19:37:16.392Z,6.62
2023-05-06T19:40:41.216Z,6.07
2023-05-06T19:44:06.316Z,6.37
2023-05-06T19:47:32.377Z,7.03
2023-05-06T19:50:56.926Z,6.53
2023-05-06T19:54:23.089Z,7.20
2023-05-06T19:57:47.487Z,6.60
2023-05-06T20:01:11.473Z,6.80
2023-05-06T20:04:36.633Z,6.15
2023-05-06T20:08:00.838Z,7.30
2023-05-06T20:11:26.472Z,8.18
2023-05-06T20:14:51.397Z,7.07
2023-05-06T20:18:16.546Z,7.70
2023-05-06T20:21:40.750Z,7.82
2023-05-06T20:25:12.808Z,7.87
2023-05-06T20:28:43.346Z,8.55
2023-05-06T20:32:08.300Z,9.00
2023-05-06T20:35:48.618Z,8.48
2023-05-06T20:39:37.480Z,8.85
2023-05-06T20:43:01.619Z,8.70
2023-05-06T20:46:27.684Z,8.38
2023-05-06T20:49:51.538Z,9.57
2023-05-06T20:53:16.077Z,8.95
2023-05-06T20:56:40.140Z,9.82
2023-05-06T21:00:04.582Z,8.85
2023-05-06T21:03:30.747Z,8.13
2023-05-06T21:06:54.871Z,9.03
2023-05-06T21:10:20.213Z,8.75
2023-05-06T21:13:44.898Z,8.50
2023-05-06T21:17:09.640Z,8.40
2023-05-06T21:20:36.447Z,8.80
2023-05-06T21:24:00.755Z,8.50
2023-05-06T21:27:25.244Z,8.60
2023-05-06T21:30:49.877Z,8.65
2023-05-06T21:34:15.772Z,9.73
2023-05-06T21:37:41.647Z,9.50
2023-05-06T21:41:09.113Z,10.77
2023-05-06T21:44:32.829Z,10.98
2023-05-06T21:47:57.310Z,10.77
2023-05-06T21:51:21.704Z,10.35
2023-05-06T21:54:49.497Z,10.38
2023-05-06T21:58:13.836Z,9.70
2023-05-06T22:01:38.369Z,9.52
2023-05-06T22:05:03.088Z,8.55
2023-05-06T22:08:27.195Z,9.85
2023-05-06T22:11:52.848Z,9.82
2023-05-06T22:15:17.881Z,10.60
2023-05-06T22:18:43.331Z,9.35
2023-05-06T22:22:07.087Z,9.27
2023-05-06T22:25:32.113Z,8.75
2023-05-06T22:28:59.320Z,8.93
2023-05-06T22:32:23.752Z,9.07
2023-05-06T22:35:49.435Z,9.40
2023-05-06T22:39:14.166Z,9.27
2023-05-06T22:42:38.422Z,10.02
2023-05-06T22:46:05.659Z,9.60
2023-05-06T22:49:30.374Z,9.30
2023-05-06T22:52:54.815Z,9.38
2023-05-06T22:56:20.344Z,10.50
2023-05-06T22:59:45.171Z,10.57
2023-05-06T23:03:10.919Z,11.10
2023-05-06T23:06:35.145Z,10.73
2023-05-06T23:10:00.054Z,10.85
2023-05-06T23:13:24.845Z,11.52
2023-05-06T23:16:48.920Z,11.18
2023-05-06T23:20:17.254Z,11.10
2023-05-06T23:23:41.137Z,11.70
2023-05-06T23:27:06.671Z,11.20
2023-05-06T23:30:31.020Z,11.35
2023-05-06T23:33:55.402Z,11.02
2023-05-06T23:37:20.610Z,11.10
2023-05-06T23:40:45.572Z,11.60
2023-05-06T23:44:09.907Z,11.68
2023-05-06T23:47:34.859Z,10.75
2023-05-06T23:50:59.208Z,10.50
2023-05-06T23:54:25.660Z,10.65
2023-05-06T23:57:49.859Z,11.07
